sensor_id;sensor_type;location;lat;lon;timestamp;pressure;altitude;pressure_sealevel;temperature;humidity
43770;BME280;6597;52.218;9.882;2023-03-16T00:02:24;101316.34;;;-2.52;100.00
43770;BME280;6597;52.218;9.882;2023-03-16T00:04:51;101317.22;;;-2.52;100.00
43770;BME280;6597;52.218;9.882;2023-03-16T00:07:21;101320.56;;;-2.54;100.00
43770;BME280;6597;52.218;9.882;2023-03-16T00:09:47;101317.91;;;-2.57;100.00
43770;BME280;6597;52.218;9.882;2023-03-16T00:12:15;101320.34;;;-2.62;100.00
43770;BME280;6597;52.218;9.882;2023-03-16T00:14:43;101320.13;;;-2.69;100.00
43770;BME280;6597;52.218;9.882;2023-03-16T00:17:10;101319.13;;;-2.74;100.00
43770;BME280;6597;52.218;9.882;2023-03-16T00:19:44;101327.59;;;-2.78;100.00
43770;BME280;6597;52.218;9.882;2023-03-16T00:22:11;101327.44;;;-2.85;100.00
43770;BME280;6597;52.218;9.882;2023-03-16T00:24:40;101314.66;;;-2.82;100.00
43770;BME280;6597;52.218;9.882;2023-03-16T00:27:08;101322.41;;;-2.80;100.00
43770;BME280;6597;52.218;9.882;2023-03-16T00:29:40;101321.41;;;-2.85;100.00
43770;BME280;6597;52.218;9.882;2023-03-16T00:32:12;101318.09;;;-2.81;100.00
43770;BME280;6597;52.218;9.882;2023-03-16T00:34:39;101316.28;;;-2.85;100.00
43770;BME280;6597;52.218;9.882;2023-03-16T00:37:06;101309.44;;;-2.85;100.00
43770;BME280;6597;52.218;9.882;2023-03-16T00:39:32;101312.88;;;-2.84;100.00
43770;BME280;6597;52.218;9.882;2023-03-16T00:42:01;101311.06;;;-2.88;100.00
43770;BME280;6597;52.218;9.882;2023-03-16T00:44:28;101315.34;;;-2.89;100.00
43770;BME280;6597;52.218;9.882;2023-03-16T00:46:55;101305.06;;;-2.89;100.00
43770;BME280;6597;52.218;9.882;2023-03-16T00:49:22;101312.88;;;-2.84;100.00
43770;BME280;6597;52.218;9.882;2023-03-16T00:51:49;101298.38;;;-2.82;100.00
43770;BME280;6597;52.218;9.882;2023-03-16T00:54:15;101305.22;;;-2.83;100.00
43770;BME280;6597;52.218;9.882;2023-03-16T00:56:42;101306.09;;;-2.82;100.00
43770;BME280;6597;52.218;9.882;2023-03-16T00:59:10;101298.41;;;-2.80;100.00
43770;BME280;6597;52.218;9.882;2023-03-16T01:01:37;101294.19;;;-2.78;100.00
43770;BME280;6597;52.218;9.882;2023-03-16T01:04:04;101296.75;;;-2.78;100.00
43770;BME280;6597;52.218;9.882;2023-03-16T01:06:32;101299.34;;;-2.78;100.00
43770;BME280;6597;52.218;9.882;2023-03-16T01:08:59;101299.38;;;-2.77;100.00
43770;BME280;6597;52.218;9.882;2023-03-16T01:11:26;101303.72;;;-2.74;100.00
43770;BME280;6597;52.218;9.882;2023-03-16T01:13:53;101298.53;;;-2.76;100.00
43770;BME280;6597;52.218;9.882;2023-03-16T01:16:21;101300.41;;;-2.70;100.00
43770;BME280;6597;52.218;9.882;2023-03-16T01:18:48;101311.63;;;-2.67;100.00
43770;BME280;6597;52.218;9.882;2023-03-16T01:21:17;101303.09;;;-2.66;100.00
43770;BME280;6597;52.218;9.882;2023-03-16T01:23:44;101298.88;;;-2.64;100.00
43770;BME280;6597;52.218;9.882;2023-03-16T01:26:10;101293.72;;;-2.64;100.00
43770;BME280;6597;52.218;9.882;2023-03-16T01:28:39;101294.56;;;-2.65;100.00
43770;BME280;6597;52.218;9.882;2023-03-16T01:31:07;101292.06;;;-2.62;100.00
43770;BME280;6597;52.218;9.882;2023-03-16T01:33:36;101290.38;;;-2.61;100.00
43770;BME280;6597;52.218;9.882;2023-03-16T01:36:09;101290.28;;;-2.64;100.00
43770;BME280;6597;52.218;9.882;2023-03-16T01:38:46;101286.72;;;-2.69;100.00
43770;BME280;6597;52.218;9.882;2023-03-16T01:41:13;101280.84;;;-2.65;100.00
43770;BME280;6597;52.218;9.882;2023-03-16T01:43:41;101285.09;;;-2.66;100.00
43770;BME280;6597;52.218;9.882;2023-03-16T01:46:20;101284.19;;;-2.68;100.00
43770;BME280;6597;52.218;9.882;2023-03-16T01:49:00;101284.06;;;-2.72;100.00
43770;BME280;6597;52.218;9.882;2023-03-16T01:51:34;101291.78;;;-2.72;100.00
43770;BME280;6597;52.218;9.882;2023-03-16T01:54:05;101293.38;;;-2.77;100.00
43770;BME280;6597;52.218;9.882;2023-03-16T01:56:37;101279.53;;;-2.83;100.00
43770;BME280;6597;52.218;9.882;2023-03-16T01:59:09;101284.72;;;-2.81;100.00
43770;BME280;6597;52.218;9.882;2023-03-16T02:01:37;101277.72;;;-2.87;100.00
43770;BME280;6597;52.218;9.882;2023-03-16T02:04:16;101276.72;;;-2.92;100.00
43770;BME280;6597;52.218;9.882;2023-03-16T02:06:47;101276.56;;;-2.96;100.00
43770;BME280;6597;52.218;9.882;2023-03-16T02:09:15;101283.31;;;-3.00;100.00
43770;BME280;6597;52.218;9.882;2023-03-16T02:11:42;101287.63;;;-2.99;100.00
43770;BME280;6597;52.218;9.882;2023-03-16T02:14:11;101279.94;;;-2.97;100.00
43770;BME280;6597;52.218;9.882;2023-03-16T02:16:39;101283.44;;;-2.95;100.00
43770;BME280;6597;52.218;9.882;2023-03-16T02:19:11;101284.31;;;-2.95;100.00
43770;BME280;6597;52.218;9.882;2023-03-16T02:21:46;101283.59;;;-2.91;100.00
43770;BME280;6597;52.218;9.882;2023-03-16T02:24:19;101282.84;;;-2.87;100.00
43770;BME280;6597;52.218;9.882;2023-03-16T02:26:49;101277.91;;;-2.79;100.00
43770;BME280;6597;52.218;9.882;2023-03-16T02:32:04;101269.44;;;-2.75;100.00
43770;BME280;6597;52.218;9.882;2023-03-16T02:34:31;101278.03;;;-2.74;100.00
43770;BME280;6597;52.218;9.882;2023-03-16T02:36:58;101272.66;;;-2.84;100.00
43770;BME280;6597;52.218;9.882;2023-03-16T02:39:26;101264.97;;;-2.82;100.00
43770;BME280;6597;52.218;9.882;2023-03-16T02:41:53;101261.53;;;-2.83;100.00
43770;BME280;6597;52.218;9.882;2023-03-16T02:44:22;101262.44;;;-2.80;100.00
43770;BME280;6597;52.218;9.882;2023-03-16T02:46:53;101260.78;;;-2.78;100.00
43770;BME280;6597;52.218;9.882;2023-03-16T02:49:25;101257.56;;;-2.71;100.00
43770;BME280;6597;52.218;9.882;2023-03-16T02:51:53;101249.88;;;-2.70;100.00
43770;BME280;6597;52.218;9.882;2023-03-16T02:54:22;101240.63;;;-2.63;100.00
43770;BME280;6597;52.218;9.882;2023-03-16T02:56:48;101244.84;;;-2.65;100.00
43770;BME280;6597;52.218;9.882;2023-03-16T02:59:15;101232.03;;;-2.64;100.00
43770;BME280;6597;52.218;9.882;2023-03-16T03:01:43;101228.53;;;-2.67;100.00
43770;BME280;6597;52.218;9.882;2023-03-16T03:04:09;101230.19;;;-2.69;100.00
43770;BME280;6597;52.218;9.882;2023-03-16T03:06:37;101234.31;;;-2.76;100.00
43770;BME280;6597;52.218;9.882;2023-03-16T03:09:05;101232.53;;;-2.78;100.00
43770;BME280;6597;52.218;9.882;2023-03-16T03:11:32;101232.41;;;-2.83;100.00
43770;BME280;6597;52.218;9.882;2023-03-16T03:13:58;101239.38;;;-2.79;100.00
43770;BME280;6597;52.218;9.882;2023-03-16T03:16:26;101226.44;;;-2.82;100.00
43770;BME280;6597;52.218;9.882;2023-03-16T03:18:54;101226.41;;;-2.84;100.00
43770;BME280;6597;52.218;9.882;2023-03-16T03:21:21;101233.25;;;-2.84;100.00
43770;BME280;6597;52.218;9.882;2023-03-16T03:23:50;101231.63;;;-2.80;100.00
43770;BME280;6597;52.218;9.882;2023-03-16T03:26:18;101225.66;;;-2.79;100.00
43770;BME280;6597;52.218;9.882;2023-03-16T03:28:46;101218.09;;;-2.73;100.00
43770;BME280;6597;52.218;9.882;2023-03-16T03:31:14;101219.19;;;-2.64;100.00
43770;BME280;6597;52.218;9.882;2023-03-16T03:33:41;101227.94;;;-2.59;100.00
43770;BME280;6597;52.218;9.882;2023-03-16T03:36:08;101220.47;;;-2.48;100.00
43770;BME280;6597;52.218;9.882;2023-03-16T03:38:36;101217.13;;;-2.45;100.00
43770;BME280;6597;52.218;9.882;2023-03-16T03:41:05;101217.97;;;-2.45;100.00
43770;BME280;6597;52.218;9.882;2023-03-16T03:43:34;101221.50;;;-2.41;100.00
43770;BME280;6597;52.218;9.882;2023-03-16T03:46:02;101230.16;;;-2.38;100.00
43770;BME280;6597;52.218;9.882;2023-03-16T03:48:31;101226.75;;;-2.37;100.00
43770;BME280;6597;52.218;9.882;2023-03-16T03:50:59;101231.88;;;-2.37;100.00
43770;BME280;6597;52.218;9.882;2023-03-16T03:53:44;101223.25;;;-2.39;100.00
43770;BME280;6597;52.218;9.882;2023-03-16T03:56:32;101227.88;;;-2.27;100.00
43770;BME280;6597;52.218;9.882;2023-03-16T03:58:59;101231.75;;;-2.07;100.00
43770;BME280;6597;52.218;9.882;2023-03-16T04:01:45;101229.59;;;-1.90;100.00
43770;BME280;6597;52.218;9.882;2023-03-16T04:04:13;101222.94;;;-1.80;98.92
43770;BME280;6597;52.218;9.882;2023-03-16T04:06:40;101219.63;;;-1.75;98.29
43770;BME280;6597;52.218;9.882;2023-03-16T04:09:07;101211.13;;;-1.72;97.02
43770;BME280;6597;52.218;9.882;2023-03-16T04:11:35;101218.06;;;-1.68;97.16
43770;BME280;6597;52.218;9.882;2023-03-16T04:14:03;101215.66;;;-1.62;95.96
43770;BME280;6597;52.218;9.882;2023-03-16T04:16:29;101223.38;;;-1.62;94.98
43770;BME280;6597;52.218;9.882;2023-03-16T04:18:56;101227.78;;;-1.57;95.40
43770;BME280;6597;52.218;9.882;2023-03-16T04:21:23;101220.25;;;-1.47;95.01
43770;BME280;6597;52.218;9.882;2023-03-16T04:23:50;101227.19;;;-1.43;94.07
43770;BME280;6597;52.218;9.882;2023-03-16T04:26:19;101232.56;;;-1.33;94.10
43770;BME280;6597;52.218;9.882;2023-03-16T04:28:48;101233.56;;;-1.26;93.43
43770;BME280;6597;52.218;9.882;2023-03-16T04:31:17;101228.44;;;-1.26;93.03
43770;BME280;6597;52.218;9.882;2023-03-16T04:33:45;101226.00;;;-1.18;92.62
43770;BME280;6597;52.218;9.882;2023-03-16T04:36:11;101224.31;;;-1.16;92.17
43770;BME280;6597;52.218;9.882;2023-03-16T04:38:39;101218.34;;;-1.14;92.64
43770;BME280;6597;52.218;9.882;2023-03-16T04:41:08;101225.22;;;-1.14;92.28
43770;BME280;6597;52.218;9.882;2023-03-16T04:43:40;101215.72;;;-1.17;92.00
43770;BME280;6597;52.218;9.882;2023-03-16T04:46:18;101220.88;;;-1.17;92.58
43770;BME280;6597;52.218;9.882;2023-03-16T04:48:45;101219.25;;;-1.12;92.17
43770;BME280;6597;52.218;9.882;2023-03-16T04:51:11;101216.78;;;-1.06;92.38
43770;BME280;6597;52.218;9.882;2023-03-16T04:53:44;101222.94;;;-0.99;92.01
43770;BME280;6597;52.218;9.882;2023-03-16T04:56:23;101210.19;;;-0.93;91.78
43770;BME280;6597;52.218;9.882;2023-03-16T04:58:55;101210.25;;;-0.88;91.00
43770;BME280;6597;52.218;9.882;2023-03-16T05:01:25;101206.84;;;-0.87;90.83
43770;BME280;6597;52.218;9.882;2023-03-16T05:03:55;101208.53;;;-0.89;90.96
43770;BME280;6597;52.218;9.882;2023-03-16T05:06:22;101208.47;;;-0.92;91.04
43770;BME280;6597;52.218;9.882;2023-03-16T05:08:49;101219.66;;;-0.92;91.17
43770;BME280;6597;52.218;9.882;2023-03-16T05:11:15;101218.09;;;-0.82;91.08
43770;BME280;6597;52.218;9.882;2023-03-16T05:13:52;101206.84;;;-0.87;90.49
43770;BME280;6597;52.218;9.882;2023-03-16T05:16:19;101217.28;;;-0.80;90.25
43770;BME280;6597;52.218;9.882;2023-03-16T05:18:48;101213.84;;;-0.80;90.51
43770;BME280;6597;52.218;9.882;2023-03-16T05:21:18;101207.75;;;-0.85;90.85
43770;BME280;6597;52.218;9.882;2023-03-16T05:24:02;101214.72;;;-0.80;90.54
43770;BME280;6597;52.218;9.882;2023-03-16T05:26:29;101217.31;;;-0.78;90.51
43770;BME280;6597;52.218;9.882;2023-03-16T05:28:56;101219.09;;;-0.76;90.21
43770;BME280;6597;52.218;9.882;2023-03-16T05:31:25;101209.63;;;-0.77;90.52
43770;BME280;6597;52.218;9.882;2023-03-16T05:33:57;101213.13;;;-0.73;90.16
43770;BME280;6597;52.218;9.882;2023-03-16T05:36:24;101212.38;;;-0.66;90.16
43770;BME280;6597;52.218;9.882;2023-03-16T05:38:55;101210.75;;;-0.63;89.58
43770;BME280;6597;52.218;9.882;2023-03-16T05:41:34;101213.50;;;-0.52;89.20
43770;BME280;6597;52.218;9.882;2023-03-16T05:44:06;101205.75;;;-0.52;88.84
43770;BME280;6597;52.218;9.882;2023-03-16T05:46:48;101204.03;;;-0.53;89.54
43770;BME280;6597;52.218;9.882;2023-03-16T05:49:17;101195.44;;;-0.52;89.19
43770;BME280;6597;52.218;9.882;2023-03-16T05:51:43;101194.75;;;-0.42;88.94
43770;BME280;6597;52.218;9.882;2023-03-16T05:54:10;101205.13;;;-0.37;89.01
43770;BME280;6597;52.218;9.882;2023-03-16T05:56:43;101200.16;;;-0.28;88.53
43770;BME280;6597;52.218;9.882;2023-03-16T05:59:09;101203.75;;;-0.18;88.39
43770;BME280;6597;52.218;9.882;2023-03-16T06:01:36;101199.59;;;-0.07;87.69
43770;BME280;6597;52.218;9.882;2023-03-16T06:04:04;101198.06;;;0.03;86.86
43770;BME280;6597;52.218;9.882;2023-03-16T06:06:36;101187.84;;;0.10;87.37
43770;BME280;6597;52.218;9.882;2023-03-16T06:09:14;101186.19;;;0.15;87.30
43770;BME280;6597;52.218;9.882;2023-03-16T06:11:41;101187.94;;;0.19;87.38
43770;BME280;6597;52.218;9.882;2023-03-16T06:24:50;101180.09;;;0.77;84.88
43770;BME280;6597;52.218;9.882;2023-03-16T06:27:17;101165.56;;;0.89;83.73
43770;BME280;6597;52.218;9.882;2023-03-16T06:29:58;101170.97;;;1.09;83.17
43770;BME280;6597;52.218;9.882;2023-03-16T06:32:25;101177.97;;;1.22;83.24
43770;BME280;6597;52.218;9.882;2023-03-16T06:34:54;101172.94;;;1.35;81.93
43770;BME280;6597;52.218;9.882;2023-03-16T06:39:52;101181.84;;;1.67;79.95
43770;BME280;6597;52.218;9.882;2023-03-16T06:42:19;101176.78;;;1.82;79.24
43770;BME280;6597;52.218;9.882;2023-03-16T06:44:46;101176.88;;;1.96;79.63
43770;BME280;6597;52.218;9.882;2023-03-16T06:47:13;101180.38;;;2.04;78.38
43770;BME280;6597;52.218;9.882;2023-03-16T06:49:39;101173.56;;;2.17;78.05
43770;BME280;6597;52.218;9.882;2023-03-16T06:52:13;101174.50;;;2.30;78.28
43770;BME280;6597;52.218;9.882;2023-03-16T06:54:40;101185.75;;;2.36;77.25
43770;BME280;6597;52.218;9.882;2023-03-16T06:57:08;101192.69;;;2.45;76.89
43770;BME280;6597;52.218;9.882;2023-03-16T06:59:35;101195.34;;;2.57;76.77
43770;BME280;6597;52.218;9.882;2023-03-16T07:02:01;101196.25;;;2.64;76.23
43770;BME280;6597;52.218;9.882;2023-03-16T07:04:28;101198.03;;;2.72;75.69
43770;BME280;6597;52.218;9.882;2023-03-16T07:06:55;101197.19;;;2.86;74.45
43770;BME280;6597;52.218;9.882;2023-03-16T07:09:21;101195.53;;;2.98;74.83
43770;BME280;6597;52.218;9.882;2023-03-16T07:11:48;101201.59;;;3.08;72.92
43770;BME280;6597;52.218;9.882;2023-03-16T07:14:17;101206.81;;;3.25;72.57
43770;BME280;6597;52.218;9.882;2023-03-16T07:16:45;101218.09;;;3.50;71.91
43770;BME280;6597;52.218;9.882;2023-03-16T07:19:12;101207.75;;;3.59;71.62
43770;BME280;6597;52.218;9.882;2023-03-16T07:21:39;101217.25;;;3.77;70.32
43770;BME280;6597;52.218;9.882;2023-03-16T07:24:11;101220.72;;;3.94;70.07
43770;BME280;6597;52.218;9.882;2023-03-16T07:26:39;101213.75;;;4.19;68.42
43770;BME280;6597;52.218;9.882;2023-03-16T07:29:06;101217.19;;;4.39;67.89
43770;BME280;6597;52.218;9.882;2023-03-16T07:31:35;101218.03;;;4.46;68.03
43770;BME280;6597;52.218;9.882;2023-03-16T07:34:07;101214.53;;;4.54;66.05
43770;BME280;6597;52.218;9.882;2023-03-16T07:36:39;101219.69;;;4.71;65.75
43770;BME280;6597;52.218;9.882;2023-03-16T07:39:06;101219.72;;;4.65;63.27
43770;BME280;6597;52.218;9.882;2023-03-16T07:41:33;101224.06;;;4.61;64.59
43770;BME280;6597;52.218;9.882;2023-03-16T07:44:13;101218.84;;;4.64;64.51
43770;BME280;6597;52.218;9.882;2023-03-16T07:46:41;101223.16;;;4.72;65.12
43770;BME280;6597;52.218;9.882;2023-03-16T07:49:08;101234.41;;;4.77;63.62
43770;BME280;6597;52.218;9.882;2023-03-16T07:51:37;101236.09;;;4.87;64.29
43770;BME280;6597;52.218;9.882;2023-03-16T07:54:05;101241.22;;;5.07;63.93
43770;BME280;6597;52.218;9.882;2023-03-16T07:56:33;101237.69;;;5.17;63.31
43770;BME280;6597;52.218;9.882;2023-03-16T07:59:00;101239.31;;;5.39;62.77
43770;BME280;6597;52.218;9.882;2023-03-16T08:01:29;101243.44;;;5.72;62.35
43770;BME280;6597;52.218;9.882;2023-03-16T08:03:57;101242.47;;;5.84;58.38
43770;BME280;6597;52.218;9.882;2023-03-16T08:06:24;101240.59;;;6.03;59.66
43770;BME280;6597;52.218;9.882;2023-03-16T08:08:50;101236.91;;;6.27;58.53
43770;BME280;6597;52.218;9.882;2023-03-16T08:11:27;101240.31;;;6.33;58.09
43770;BME280;6597;52.218;9.882;2023-03-16T08:13:57;101232.66;;;6.15;56.76
43770;BME280;6597;52.218;9.882;2023-03-16T08:16:33;101238.97;;;5.92;57.76
43770;BME280;6597;52.218;9.882;2023-03-16T08:19:01;101239.06;;;5.76;58.65
43770;BME280;6597;52.218;9.882;2023-03-16T08:21:28;101247.72;;;5.79;59.44
43770;BME280;6597;52.218;9.882;2023-03-16T08:23:55;101237.13;;;6.02;57.76
43770;BME280;6597;52.218;9.882;2023-03-16T08:26:23;101235.22;;;6.24;56.17
43770;BME280;6597;52.218;9.882;2023-03-16T08:28:55;101238.44;;;6.47;55.30
43770;BME280;6597;52.218;9.882;2023-03-16T08:31:23;101246.03;;;6.69;55.13
43770;BME280;6597;52.218;9.882;2023-03-16T08:33:57;101238.78;;;6.95;53.92
43770;BME280;6597;52.218;9.882;2023-03-16T08:36:27;101247.00;;;7.31;53.15
43770;BME280;6597;52.218;9.882;2023-03-16T08:38:56;101239.97;;;7.34;51.23
43770;BME280;6597;52.218;9.882;2023-03-16T08:41:24;101238.63;;;7.06;49.94
43770;BME280;6597;52.218;9.882;2023-03-16T08:43:53;101233.34;;;7.10;50.91
43770;BME280;6597;52.218;9.882;2023-03-16T08:46:19;101231.50;;;7.18;50.63
43770;BME280;6597;52.218;9.882;2023-03-16T08:48:52;101243.09;;;7.59;50.71
43770;BME280;6597;52.218;9.882;2023-03-16T08:51:22;101239.41;;;7.72;50.06
43770;BME280;6597;52.218;9.882;2023-03-16T08:53:50;101241.53;;;7.46;49.80
43770;BME280;6597;52.218;9.882;2023-03-16T08:56:17;101251.19;;;7.42;50.51
43770;BME280;6597;52.218;9.882;2023-03-16T08:58:43;101251.19;;;7.41;51.18
43770;BME280;6597;52.218;9.882;2023-03-16T09:01:11;101242.13;;;7.66;50.81
43770;BME280;6597;52.218;9.882;2023-03-16T09:03:38;101242.13;;;7.66;50.00
43770;BME280;6597;52.218;9.882;2023-03-16T09:06:07;101234.88;;;7.85;49.56
43770;BME280;6597;52.218;9.882;2023-03-16T09:08:35;101237.31;;;7.94;48.45
43770;BME280;6597;52.218;9.882;2023-03-16T09:11:07;101229.09;;;8.17;48.89
43770;BME280;6597;52.218;9.882;2023-03-16T09:13:35;101237.59;;;8.28;48.20
43770;BME280;6597;52.218;9.882;2023-03-16T09:16:03;101227.13;;;8.30;47.81
43770;BME280;6597;52.218;9.882;2023-03-16T09:18:29;101214.94;;;8.29;48.08
43770;BME280;6597;52.218;9.882;2023-03-16T09:20:57;101224.03;;;8.57;48.07
43770;BME280;6597;52.218;9.882;2023-03-16T09:23:25;101218.88;;;8.53;47.55
43770;BME280;6597;52.218;9.882;2023-03-16T09:25:54;101220.72;;;8.48;47.67
43770;BME280;6597;52.218;9.882;2023-03-16T09:28:23;101212.97;;;8.86;46.99
43770;BME280;6597;52.218;9.882;2023-03-16T09:30:51;101220.16;;;8.75;46.71
43770;BME280;6597;52.218;9.882;2023-03-16T09:33:19;101204.06;;;8.95;46.62
43770;BME280;6597;52.218;9.882;2023-03-16T09:35:46;101202.25;;;8.97;46.77
43770;BME280;6597;52.218;9.882;2023-03-16T09:38:13;101201.06;;;9.13;46.19
43770;BME280;6597;52.218;9.882;2023-03-16T09:40:40;101201.16;;;9.47;45.32
43770;BME280;6597;52.218;9.882;2023-03-16T09:43:19;101193.19;;;9.52;45.15
43770;BME280;6597;52.218;9.882;2023-03-16T09:46:00;101199.84;;;9.28;44.59
43770;BME280;6597;52.218;9.882;2023-03-16T09:48:31;101196.53;;;9.20;44.72
43770;BME280;6597;52.218;9.882;2023-03-16T09:51:01;101191.94;;;8.91;44.20
43770;BME280;6597;52.218;9.882;2023-03-16T09:53:30;101199.47;;;8.63;44.81
43770;BME280;6597;52.218;9.882;2023-03-16T09:56:01;101206.06;;;8.37;45.32
43770;BME280;6597;52.218;9.882;2023-03-16T09:58:29;101199.06;;;8.39;45.66
43770;BME280;6597;52.218;9.882;2023-03-16T10:01:04;101197.94;;;8.53;45.20
43770;BME280;6597;52.218;9.882;2023-03-16T10:03:57;101190.25;;;8.88;44.51
43770;BME280;6597;52.218;9.882;2023-03-16T10:06:27;101191.94;;;8.91;44.13
43770;BME280;6597;52.218;9.882;2023-03-16T10:09:02;101196.84;;;9.04;43.50
43770;BME280;6597;52.218;9.882;2023-03-16T10:11:34;101207.22;;;9.11;43.09
43770;BME280;6597;52.218;9.882;2023-03-16T10:14:09;101189.84;;;9.45;43.66
43770;BME280;6597;52.218;9.882;2023-03-16T10:16:46;101201.28;;;9.78;40.96
43770;BME280;6597;52.218;9.882;2023-03-16T10:19:17;101192.78;;;10.37;41.32
43770;BME280;6597;52.218;9.882;2023-03-16T10:21:46;101190.41;;;10.89;41.31
43770;BME280;6597;52.218;9.882;2023-03-16T10:24:25;101173.81;;;11.17;40.20
43770;BME280;6597;52.218;9.882;2023-03-16T10:26:55;101183.44;;;11.18;39.64
43770;BME280;6597;52.218;9.882;2023-03-16T10:29:25;101168.63;;;10.86;39.28
43770;BME280;6597;52.218;9.882;2023-03-16T10:31:58;101178.66;;;10.73;40.29
43770;BME280;6597;52.218;9.882;2023-03-16T10:34:27;101165.84;;;10.61;40.28
43770;BME280;6597;52.218;9.882;2023-03-16T10:36:55;101167.88;;;10.82;39.72
43770;BME280;6597;52.218;9.882;2023-03-16T10:39:22;101156.94;;;10.96;40.03
43770;BME280;6597;52.218;9.882;2023-03-16T10:41:54;101171.50;;;10.78;40.06
43770;BME280;6597;52.218;9.882;2023-03-16T10:44:22;101167.84;;;10.53;40.21
43770;BME280;6597;52.218;9.882;2023-03-16T10:46:59;101171.75;;;10.38;40.46
43770;BME280;6597;52.218;9.882;2023-03-16T10:49:27;101170.00;;;10.68;41.07
43770;BME280;6597;52.218;9.882;2023-03-16T10:51:56;101166.19;;;10.80;41.09
43770;BME280;6597;52.218;9.882;2023-03-16T10:54:27;101157.91;;;11.21;40.98
43770;BME280;6597;52.218;9.882;2023-03-16T10:56:55;101153.84;;;11.66;39.82
43770;BME280;6597;52.218;9.882;2023-03-16T10:59:27;101147.69;;;11.40;38.92
43770;BME280;6597;52.218;9.882;2023-03-16T11:01:56;101148.25;;;11.22;39.07
43770;BME280;6597;52.218;9.882;2023-03-16T11:04:24;101148.09;;;11.54;38.84
43770;BME280;6597;52.218;9.882;2023-03-16T11:06:53;101146.91;;;11.63;39.70
43770;BME280;6597;52.218;9.882;2023-03-16T11:09:23;101140.72;;;11.92;37.98
43770;BME280;6597;52.218;9.882;2023-03-16T11:11:51;101142.97;;;11.50;38.55
43770;BME280;6597;52.218;9.882;2023-03-16T11:14:26;101130.88;;;11.97;39.16
43770;BME280;6597;52.218;9.882;2023-03-16T11:16:59;101137.88;;;11.45;39.61
43770;BME280;6597;52.218;9.882;2023-03-16T11:19:31;101132.78;;;11.13;39.82
43770;BME280;6597;52.218;9.882;2023-03-16T11:22:02;101140.59;;;10.57;40.09
43770;BME280;6597;52.218;9.882;2023-03-16T11:24:37;101143.09;;;10.62;39.84
43770;BME280;6597;52.218;9.882;2023-03-16T11:27:13;101137.50;;;10.43;40.63
43770;BME280;6597;52.218;9.882;2023-03-16T11:29:56;101136.66;;;10.42;40.47
43770;BME280;6597;52.218;9.882;2023-03-16T11:32:28;101131.44;;;10.41;42.09
43770;BME280;6597;52.218;9.882;2023-03-16T11:34:57;101131.72;;;10.30;41.18
43770;BME280;6597;52.218;9.882;2023-03-16T11:37:37;101135.72;;;10.12;41.86
43770;BME280;6597;52.218;9.882;2023-03-16T11:40:18;101117.84;;;10.26;42.56
43770;BME280;6597;52.218;9.882;2023-03-16T11:42:55;101113.63;;;10.52;42.08
43770;BME280;6597;52.218;9.882;2023-03-16T11:45:30;101115.75;;;10.38;42.29
43770;BME280;6597;52.218;9.882;2023-03-16T11:48:28;101113.84;;;10.12;41.16
43770;BME280;6597;52.218;9.882;2023-03-16T11:51:08;101099.81;;;10.45;41.09
43770;BME280;6597;52.218;9.882;2023-03-16T11:53:49;101091.00;;;10.77;40.71
43770;BME280;6597;52.218;9.882;2023-03-16T11:56:32;101086.59;;;11.06;40.70
43770;BME280;6597;52.218;9.882;2023-03-16T11:59:37;101081.25;;;11.35;40.69
43770;BME280;6597;52.218;9.882;2023-03-16T12:02:27;101080.31;;;11.89;40.02
43770;BME280;6597;52.218;9.882;2023-03-16T12:05:16;101073.38;;;12.11;41.11
43770;BME280;6597;52.218;9.882;2023-03-16T12:07:56;101070.63;;;12.14;39.67
43770;BME280;6597;52.218;9.882;2023-03-16T12:10:28;101075.09;;;11.88;38.92
43770;BME280;6597;52.218;9.882;2023-03-16T12:13:08;101060.13;;;11.90;38.97
43770;BME280;6597;52.218;9.882;2023-03-16T12:15:41;101071.38;;;11.93;39.13
43770;BME280;6597;52.218;9.882;2023-03-16T12:18:15;101065.16;;;11.96;39.23
43770;BME280;6597;52.218;9.882;2023-03-16T12:20:47;101068.34;;;11.54;39.28
43770;BME280;6597;52.218;9.882;2023-03-16T12:23:19;101062.28;;;11.52;38.68
43770;BME280;6597;52.218;9.882;2023-03-16T12:25:48;101062.41;;;11.49;39.58
43770;BME280;6597;52.218;9.882;2023-03-16T12:28:21;101039.31;;;11.83;40.76
43770;BME280;6597;52.218;9.882;2023-03-16T12:30:54;101032.63;;;12.22;39.53
43770;BME280;6597;52.218;9.882;2023-03-16T12:33:33;101037.03;;;12.44;39.28
43770;BME280;6597;52.218;9.882;2023-03-16T12:36:05;101032.09;;;12.59;39.47
43770;BME280;6597;52.218;9.882;2023-03-16T12:38:43;101028.47;;;12.39;38.30
43770;BME280;6597;52.218;9.882;2023-03-16T12:41:18;101030.81;;;11.75;38.76
43770;BME280;6597;52.218;9.882;2023-03-16T12:44:10;101023.88;;;11.48;39.17
43770;BME280;6597;52.218;9.882;2023-03-16T12:46:47;101024.09;;;11.42;38.22
43770;BME280;6597;52.218;9.882;2023-03-16T12:49:18;101024.97;;;11.66;37.92
43770;BME280;6597;52.218;9.882;2023-03-16T12:51:45;101032.75;;;11.69;37.34
43770;BME280;6597;52.218;9.882;2023-03-16T12:54:21;101019.63;;;11.69;36.41
43770;BME280;6597;52.218;9.882;2023-03-16T12:56:50;101010.88;;;11.68;37.04
43770;BME280;6597;52.218;9.882;2023-03-16T12:59:20;100999.91;;;11.82;35.82
43770;BME280;6597;52.218;9.882;2023-03-16T13:01:50;100998.50;;;11.72;37.24
43770;BME280;6597;52.218;9.882;2023-03-16T13:04:18;101001.91;;;10.98;36.97
43770;BME280;6597;52.218;9.882;2023-03-16T13:06:50;101007.38;;;10.91;38.40
43770;BME280;6597;52.218;9.882;2023-03-16T13:09:19;101010.00;;;10.64;37.44
43770;BME280;6597;52.218;9.882;2023-03-16T13:11:48;101013.31;;;10.42;38.72
43770;BME280;6597;52.218;9.882;2023-03-16T13:14:31;101008.59;;;9.93;37.67
43770;BME280;6597;52.218;9.882;2023-03-16T13:17:03;101002.31;;;9.98;38.65
43770;BME280;6597;52.218;9.882;2023-03-16T13:19:31;101000.25;;;9.79;39.27
43770;BME280;6597;52.218;9.882;2023-03-16T13:22:16;100991.72;;;9.71;38.75
43770;BME280;6597;52.218;9.882;2023-03-16T13:24:50;100987.25;;;9.74;38.10
43770;BME280;6597;52.218;9.882;2023-03-16T13:27:25;100976.41;;;9.57;39.36
43770;BME280;6597;52.218;9.882;2023-03-16T13:29:57;100962.47;;;9.55;39.35
43770;BME280;6597;52.218;9.882;2023-03-16T13:32:25;100960.72;;;9.55;38.89
43770;BME280;6597;52.218;9.882;2023-03-16T13:34:57;100966.84;;;9.54;38.21